Time;durP1;ratioP1;P1;durP2;ratioP2;P2;SDS_P1;SDS_P2;PMS_P1;PMS_P2;Temp;Humidity;BMP_temperature;BMP_pressure;BME280_temperature;BME280_humidity;BME280_pressure;Samples;Min_cycle;Max_cycle;Signal;HPM_P1;HPM_P2
2023/02/13 00:01:15;;;;;;;13.80;12.20;;;-0.30;99.90;;;0.50;100.00;99866.72;5224004;28;20575;-82
2023/02/13 00:03:48;;;;;;;15.37;13.27;;;-0.30;99.90;;;0.50;100.00;99861.69;5218486;28;20719;-81
2023/02/13 00:06:23;;;;;;;15.17;12.60;;;-0.40;99.90;;;0.39;100.00;99867.84;5221028;28;20220;-82
2023/02/13 00:08:56;;;;;;;15.77;13.00;;;-0.40;99.90;;;0.36;100.00;99862.44;5224026;28;20231;-84
2023/02/13 00:11:30;;;;;;;17.27;13.50;;;-0.40;99.90;;;0.34;100.00;99856.28;5219435;28;20693;-82
2023/02/13 00:14:03;;;;;;;15.80;12.87;;;-0.40;99.90;;;0.30;100.00;99860.75;5224559;28;20965;-82
2023/02/13 00:16:36;;;;;;;15.40;13.57;;;-0.50;99.90;;;0.27;100.00;99860.34;5221095;28;20290;-84
2023/02/13 00:19:09;;;;;;;16.57;14.27;;;-0.50;99.90;;;0.24;100.00;99863.38;5226064;28;20726;-81
2023/02/13 00:21:44;;;;;;;17.30;13.73;;;-0.50;99.90;;;0.27;100.00;99865.38;5221179;28;20296;-83
2023/02/13 00:24:17;;;;;;;16.23;12.93;;;-0.50;99.90;;;0.25;100.00;99866.78;5225949;28;20222;-84
2023/02/13 00:26:50;;;;;;;17.17;14.10;;;-0.50;99.90;;;0.20;100.00;99864.59;5220007;28;20204;-82
2023/02/13 00:29:23;;;;;;;17.73;15.07;;;-0.50;99.90;;;0.19;100.00;99866.91;5225597;28;20227;-81
2023/02/13 00:31:56;;;;;;;17.93;13.97;;;-0.60;99.90;;;0.13;100.00;99867.00;5224036;28;20231;-81
2023/02/13 00:34:30;;;;;;;17.20;14.57;;;-0.60;99.90;;;0.02;100.00;99861.31;5216189;28;20246;-81
2023/02/13 00:37:04;;;;;;;16.50;13.67;;;-0.70;99.90;;;0.01;100.00;99860.41;5223029;28;20715;-84
2023/02/13 00:39:38;;;;;;;17.13;13.67;;;-0.70;99.90;;;0.01;100.00;99860.41;5228163;28;20279;-83
2023/02/13 00:42:11;;;;;;;17.50;14.27;;;-0.70;99.90;;;0.02;100.00;99852.16;5223585;28;20318;-83
2023/02/13 00:44:44;;;;;;;18.47;14.73;;;-0.60;99.90;;;0.06;100.00;99856.88;5221939;28;20259;-83
2023/02/13 00:47:17;;;;;;;17.43;14.07;;;-0.60;99.90;;;0.05;100.00;99859.19;5227226;28;20257;-82
2023/02/13 00:49:50;;;;;;;17.90;14.27;;;-0.70;99.90;;;0.01;100.00;99859.50;5222501;28;20202;-80
2023/02/13 00:52:24;;;;;;;18.67;15.60;;;-0.70;99.90;;;0.06;100.00;99859.41;5220836;28;20207;-81
2023/02/13 00:54:58;;;;;;;20.83;16.13;;;-0.60;99.90;;;0.06;100.00;99859.41;5218425;28;20225;-82
2023/02/13 00:57:31;;;;;;;18.93;15.30;;;-0.70;99.90;;;0.05;100.00;99854.16;5221475;28;20284;-82
2023/02/13 01:00:06;;;;;;;17.10;14.73;;;-0.70;99.90;;;0.03;100.00;99856.50;5220504;28;20208;-80
2023/02/13 01:02:39;;;;;;;17.37;15.17;;;-0.70;99.90;;;0.05;100.00;99846.63;5220130;28;20231;-82
2023/02/13 01:05:12;;;;;;;20.10;16.00;;;-0.70;99.90;;;0.05;100.00;99857.56;5214493;28;20627;-81
2023/02/13 01:07:47;;;;;;;19.20;15.80;;;-0.70;99.90;;;0.06;100.00;99848.41;5220560;28;20224;-82
2023/02/13 01:10:20;;;;;;;18.97;15.47;;;-0.70;99.90;;;0.09;100.00;99848.84;5222057;28;20253;-82
2023/02/13 01:12:54;;;;;;;16.50;13.50;;;-0.70;99.90;;;0.02;100.00;99844.59;5219594;28;20223;-81
2023/02/13 01:15:27;;;;;;;17.77;13.83;;;-0.80;99.90;;;-0.05;100.00;99845.44;5218081;28;20579;-81
2023/02/13 01:18:00;;;;;;;17.87;14.53;;;-0.80;99.90;;;-0.04;100.00;99847.22;5224129;28;20201;-82
2023/02/13 01:20:34;;;;;;;17.97;13.20;;;-0.80;99.90;;;-0.08;100.00;99845.03;5217171;28;20193;-80
2023/02/13 01:23:08;;;;;;;19.73;14.07;;;-0.80;99.90;;;-0.08;100.00;99841.63;5221877;28;20314;-81
2023/02/13 01:25:42;;;;;;;18.13;13.97;;;-0.80;99.90;;;-0.13;100.00;99840.13;5224548;28;20290;-82
2023/02/13 01:28:15;;;;;;;16.67;14.07;;;-0.90;99.90;;;-0.16;100.00;99840.63;5223461;28;20233;-82
2023/02/13 01:30:53;;;;;;;17.30;14.07;;;-0.90;99.90;;;-0.20;100.00;99837.50;5214328;28;20699;-82
2023/02/13 01:33:29;;;;;;;16.73;13.97;;;-0.90;99.90;;;-0.21;100.00;99841.63;5220565;28;20240;-82
2023/02/13 01:36:07;;;;;;;17.87;13.63;;;-0.90;99.90;;;-0.33;100.00;99843.44;5217146;28;20213;-81
2023/02/13 01:38:42;;;;;;;20.13;15.23;;;-1.00;99.90;;;-0.42;100.00;99837.22;5219668;28;20273;-81
2023/02/13 01:41:15;;;;;;;20.27;15.00;;;-1.10;99.90;;;-0.35;100.00;99838.91;5222370;28;20209;-80
2023/02/13 01:43:52;;;;;;;20.27;15.20;;;-1.10;99.90;;;-0.33;100.00;99837.50;5221692;28;20246;-82
2023/02/13 01:46:30;;;;;;;19.10;13.90;;;-1.00;99.90;;;-0.31;100.00;99833.59;5221796;28;20275;-81
2023/02/13 01:49:10;;;;;;;20.30;14.67;;;-1.00;99.90;;;-0.30;100.00;99830.38;5222035;28;20925;-81
2023/02/13 01:51:45;;;;;;;20.17;14.43;;;-1.00;99.90;;;-0.32;100.00;99835.19;5219820;28;20784;-82
2023/02/13 01:54:29;;;;;;;20.33;15.50;;;-1.10;99.90;;;-0.28;100.00;99834.91;5222352;28;20228;-82
2023/02/13 01:57:07;;;;;;;18.30;14.23;;;-1.00;99.90;;;-0.26;100.00;99831.00;5222577;28;20232;-81
2023/02/13 01:59:47;;;;;;;19.23;14.77;;;-1.00;99.90;;;-0.28;100.00;99836.50;5222293;28;20285;-82
2023/02/13 02:02:21;;;;;;;20.93;14.93;;;-1.00;99.90;;;-0.33;100.00;99829.97;5214307;28;20706;-80
2023/02/13 02:04:56;;;;;;;19.37;14.87;;;-1.10;99.90;;;-0.38;100.00;99833.50;5221914;28;20231;-81
2023/02/13 02:07:30;;;;;;;20.03;14.70;;;-1.10;99.90;;;-0.40;100.00;99835.81;5217554;28;20203;-82
2023/02/13 02:10:11;;;;;;;19.33;14.10;;;-1.10;99.90;;;-0.42;100.00;99834.72;5221516;28;20209;-81
2023/02/13 02:12:50;;;;;;;18.43;14.43;;;-1.10;99.90;;;-0.44;100.00;99825.16;5224248;28;20279;-80
2023/02/13 02:15:23;;;;;;;20.67;15.77;;;-1.10;99.90;;;-0.40;100.00;99824.84;5227737;28;20639;-81
2023/02/13 02:17:56;;;;;;;19.93;15.73;;;-1.10;99.90;;;-0.43;100.00;99827.84;5226939;28;20287;-81
2023/02/13 02:20:55;;;;;;;19.30;15.10;;;-1.10;99.90;;;-0.43;100.00;99829.47;5226003;28;20219;-81
2023/02/13 02:24:12;;;;;;;18.10;14.27;;;-1.20;99.90;;;-0.51;100.00;99818.44;5225919;28;20245;-80
2023/02/13 02:27:16;;;;;;;19.73;15.53;;;-1.20;99.90;;;-0.76;100.00;99825.25;5215467;28;20234;-81
2023/02/13 02:30:18;;;;;;;19.57;15.43;;;-1.40;99.90;;;-0.71;100.00;99818.31;5221760;28;20293;-81
2023/02/13 02:33:05;;;;;;;21.83;15.83;;;-1.40;99.90;;;-0.66;100.00;99816.41;5219981;28;20194;-81
2023/02/13 02:35:48;;;;;;;28.30;19.40;;;-1.30;99.90;;;-0.62;100.00;99819.53;5226670;28;20224;-82
2023/02/13 02:38:55;;;;;;;24.30;18.30;;;-1.20;99.90;;;-0.52;100.00;99826.66;5223344;28;20577;-81
2023/02/13 02:41:42;;;;;;;23.37;16.10;;;-1.20;99.90;;;-0.52;100.00;99814.09;5225693;28;20224;-82
2023/02/13 02:44:32;;;;;;;20.80;16.20;;;-1.20;99.90;;;-0.56;100.00;99816.94;5222721;28;20732;-81
2023/02/13 02:50:29;;;;;;;25.43;17.87;;;-1.20;99.90;;;-0.57;100.00;99805.97;5223736;28;20231;-81
2023/02/13 02:53:17;;;;;;;23.87;16.80;;;-1.30;99.90;;;-0.57;100.00;99818.53;5215812;28;20299;-81
2023/02/13 02:55:56;;;;;;;25.30;18.40;;;-1.30;99.90;;;-0.56;100.00;99817.81;5227860;28;20617;-82
2023/02/13 03:07:20;;;;;;;25.63;18.07;;;-1.30;99.90;;;-0.68;100.00;99808.69;5222820;28;20193;-81
2023/02/13 03:24:49;;;;;;;26.37;18.43;;;-1.40;99.90;;;-0.70;100.00;99831.06;5216759;28;20221;-80
2023/02/13 03:30:40;;;;;;;27.53;20.30;;;-1.40;99.90;;;-0.64;100.00;99838.50;5224304;28;20220;-82
2023/02/13 03:33:27;;;;;;;24.73;18.77;;;-1.40;99.90;;;-0.66;100.00;99836.50;5225204;28;20230;-82
2023/02/13 03:39:13;;;;;;;27.20;18.67;;;-1.50;99.90;;;-0.75;100.00;99847.13;5219179;28;20202;-81
2023/02/13 03:41:54;;;;;;;25.73;19.13;;;-1.50;99.90;;;-0.76;100.00;99849.44;5224778;28;20193;-82
2023/02/13 03:44:31;;;;;;;24.07;18.47;;;-1.50;99.90;;;-0.76;100.00;99851.94;5225004;28;20225;-82
2023/02/13 03:47:09;;;;;;;27.13;19.97;;;-1.50;99.90;;;-0.83;100.00;99851.81;5215417;28;20372;-82
2023/02/13 03:52:45;;;;;;;25.93;18.27;;;-1.50;99.90;;;-0.85;100.00;99864.19;5228073;28;20199;-82
2023/02/13 04:01:13;;;;;;;27.03;19.20;;;-1.50;99.90;;;-0.80;100.00;99867.28;5223635;28;20204;-81
2023/02/13 04:03:53;;;;;;;27.00;18.90;;;-1.50;99.90;;;-0.84;100.00;99877.63;5216174;28;20232;-81
2023/02/13 04:06:31;;;;;;;26.17;19.07;;;-1.50;99.90;;;-0.87;100.00;99878.13;5221983;28;20217;-81
2023/02/13 04:09:05;;;;;;;24.30;18.43;;;-1.60;99.90;;;-0.89;100.00;99881.13;5216202;28;20659;-81
2023/02/13 04:11:45;;;;;;;26.53;18.93;;;-1.60;99.90;;;-1.09;100.00;99884.38;5219666;28;20297;-82
2023/02/13 04:14:25;;;;;;;24.50;18.87;;;-1.70;99.90;;;-1.01;100.00;99881.28;5220200;28;20588;-82
2023/02/13 04:17:05;;;;;;;23.70;18.17;;;-1.70;99.90;;;-1.02;100.00;99884.53;5220188;28;20197;-82
2023/02/13 04:19:38;;;;;;;24.80;19.33;;;-1.70;99.90;;;-1.00;100.00;99880.63;5213889;28;20206;-81
2023/02/13 04:22:12;;;;;;;26.30;18.70;;;-1.70;99.90;;;-0.99;100.00;99879.00;5219102;28;20288;-82
2023/02/13 04:24:46;;;;;;;26.57;18.30;;;-1.60;99.90;;;-0.98;100.00;99881.72;5223621;28;20221;-80
2023/02/13 04:27:19;;;;;;;27.90;18.73;;;-1.60;99.90;;;-1.04;100.00;99880.00;5218404;28;20750;-82
2023/02/13 04:29:54;;;;;;;24.97;18.80;;;-1.70;99.90;;;-1.04;100.00;99885.91;5223760;28;20195;-81
2023/02/13 04:32:27;;;;;;;28.63;20.23;;;-1.70;99.90;;;-1.14;100.00;99892.91;5226456;28;20713;-82
2023/02/13 04:35:00;;;;;;;29.17;20.27;;;-1.70;99.90;;;-1.04;100.00;99893.44;5223002;28;20232;-83
2023/02/13 04:37:33;;;;;;;30.63;20.20;;;-1.60;99.90;;;-0.95;100.00;99888.75;5219380;28;20193;-81
2023/02/13 04:40:08;;;;;;;30.50;20.20;;;-1.60;99.90;;;-0.97;100.00;99887.66;5224110;28;20240;-82
2023/02/13 04:42:41;;;;;;;29.57;19.77;;;-1.60;99.90;;;-1.02;100.00;99887.03;5221851;28;21096;-82
2023/02/13 04:45:17;;;;;;;28.03;19.70;;;-1.60;99.90;;;-0.97;100.00;99883.53;5225115;28;20241;-81
2023/02/13 04:47:51;;;;;;;27.20;18.73;;;-1.60;99.90;;;-1.00;100.00;99883.13;5222239;28;20626;-81
2023/02/13 04:50:25;;;;;;;29.67;19.90;;;-1.60;99.90;;;-0.93;100.00;99873.19;5218053;28;20213;-81
2023/02/13 04:52:59;;;;;;;29.50;18.50;;;-1.60;99.90;;;-0.91;100.00;99884.34;5218664;28;20209;-82
2023/02/13 04:55:32;;;;;;;26.83;18.93;;;-1.60;99.90;;;-0.91;100.00;99876.81;5215530;28;20254;-80
2023/02/13 04:58:05;;;;;;;25.97;18.30;;;-1.60;99.90;;;-0.92;100.00;99882.56;5218665;28;20625;-79
2023/02/13 05:00:40;;;;;;;29.40;17.73;;;-1.60;99.90;;;-0.91;100.00;99885.97;5225388;28;20225;-84
2023/02/13 05:03:13;;;;;;;27.60;19.20;;;-1.70;99.90;;;-1.07;100.00;99890.53;5227859;28;20250;-84
2023/02/13 05:05:48;;;;;;;27.33;18.17;;;-1.80;99.90;;;-1.07;100.00;99887.09;5222816;28;20262;-81
2023/02/13 05:08:21;;;;;;;26.03;17.70;;;-1.80;99.90;;;-1.08;100.00;99887.81;5223215;28;20209;-84
2023/02/13 05:10:54;;;;;;;28.67;18.80;;;-1.70;99.90;;;-1.02;100.00;99883.63;5225128;28;20338;-83
2023/02/13 05:13:28;;;;;;;28.43;19.10;;;-1.70;99.90;;;-1.05;100.00;99886.63;5228808;28;20676;-82
2023/02/13 05:16:02;;;;;;;27.63;19.40;;;-1.70;99.90;;;-1.01;100.00;99896.34;5223981;28;20225;-83
2023/02/13 05:18:35;;;;;;;28.60;19.33;;;-1.70;99.90;;;-0.99;100.00;99892.44;5224028;28;20205;-83
2023/02/13 05:24:00;;;;;;;27.60;17.97;;;-1.70;99.90;;;-0.98;100.00;99895.88;5224049;28;20226;-84
2023/02/13 05:26:33;;;;;;;28.33;19.37;;;-1.70;99.90;;;-1.14;100.00;99897.94;5228239;28;20217;-82
2023/02/13 05:29:22;;;;;;;28.30;18.93;;;-1.80;99.90;;;-1.15;100.00;99899.50;5222842;28;20664;-84
2023/02/13 05:31:58;;;;;;;27.90;17.93;;;-1.80;99.90;;;-1.22;100.00;99896.00;5223946;28;20243;-84
2023/02/13 05:34:31;;;;;;;31.23;18.97;;;-1.80;99.90;;;-1.23;100.00;99900.09;5227291;28;20221;-82
2023/02/13 05:37:04;;;;;;;29.10;19.03;;;-1.80;99.90;;;-1.19;100.00;99896.41;5220352;28;20209;-84
2023/02/13 05:39:37;;;;;;;29.87;19.37;;;-1.80;99.90;;;-1.18;100.00;99895.69;5223114;28;20213;-84
2023/02/13 05:42:11;;;;;;;25.97;19.27;;;-1.80;99.90;;;-1.17;100.00;99897.53;5223877;28;20222;-84
2023/02/13 05:44:44;;;;;;;27.37;18.87;;;-1.90;99.90;;;-1.30;100.00;99896.56;5220012;28;20770;-83
2023/02/13 05:47:19;;;;;;;27.50;18.03;;;-1.90;99.90;;;-1.27;100.00;99897.88;5225500;28;20239;-83
2023/02/13 05:49:52;;;;;;;25.67;18.60;;;-1.90;99.90;;;-1.19;100.00;99894.78;5225759;28;20233;-84
2023/02/13 05:52:25;;;;;;;34.80;19.40;;;-1.80;99.90;;;-1.15;100.00;99906.13;5224903;28;20201;-83
2023/02/13 05:54:58;;;;;;;30.93;20.40;;;-1.70;99.90;;;-1.12;100.00;99901.53;5223444;28;20689;-83
2023/02/13 05:57:31;;;;;;;32.53;19.07;;;-1.70;99.90;;;-1.14;100.00;99902.94;5226121;28;20205;-82
2023/02/13 06:00:08;;;;;;;30.87;19.23;;;-1.80;99.90;;;-1.11;100.00;99892.44;5228121;28;20262;-83
2023/02/13 06:02:42;;;;;;;29.20;19.53;;;-1.80;99.90;;;-1.12;100.00;99896.50;5222159;28;20209;-84
2023/02/13 06:05:16;;;;;;;27.10;17.43;;;-1.80;99.90;;;-1.13;100.00;99900.63;5220992;28;20231;-81
2023/02/13 06:07:49;;;;;;;29.03;18.93;;;-1.80;99.90;;;-1.14;100.00;99891.31;5216680;28;20285;-81
2023/02/13 06:10:22;;;;;;;30.57;19.30;;;-1.80;99.90;;;-1.16;100.00;99895.19;5225021;28;20211;-81
2023/02/13 06:12:55;;;;;;;29.83;19.00;;;-1.80;99.90;;;-1.18;100.00;99895.69;5211642;28;20255;-81
2023/02/13 06:15:28;;;;;;;27.97;18.13;;;-1.80;99.90;;;-1.08;100.00;99895.34;5218365;28;20213;-81
2023/02/13 06:18:03;;;;;;;34.27;20.40;;;-1.70;99.90;;;-1.03;100.00;99897.78;5220036;28;20213;-81
2023/02/13 06:20:36;;;;;;;28.10;18.23;;;-1.70;99.90;;;-1.01;100.00;99905.50;5218163;28;20196;-81
2023/02/13 06:23:09;;;;;;;32.87;20.07;;;-1.60;99.90;;;-0.99;100.00;99905.00;5219603;28;20226;-80
2023/02/13 06:25:43;;;;;;;26.30;18.20;;;-1.60;99.90;;;-0.96;100.00;99904.50;5227933;28;20213;-80
2023/02/13 06:28:16;;;;;;;28.57;18.83;;;-1.60;99.90;;;-0.99;100.00;99905.00;5219257;28;20224;-81
2023/02/13 06:30:49;;;;;;;25.60;18.60;;;-1.70;99.90;;;-0.97;100.00;99915.25;5228082;28;20200;-81
2023/02/13 06:33:24;;;;;;;24.63;17.77;;;-1.70;99.90;;;-1.05;100.00;99913.31;5226329;28;20616;-80
2023/02/13 06:35:57;;;;;;;26.13;17.60;;;-1.80;99.90;;;-1.09;100.00;99909.47;5222636;28;20197;-81
2023/02/13 06:38:30;;;;;;;25.90;17.00;;;-1.80;99.90;;;-1.11;100.00;99910.00;5213047;28;20218;-81
2023/02/13 06:41:04;;;;;;;26.77;17.70;;;-1.80;99.90;;;-1.12;100.00;99911.56;5221825;28;20205;-81
2023/02/13 06:43:37;;;;;;;26.77;17.03;;;-1.90;99.90;;;-1.11;100.00;99910.88;5222798;28;20228;-82
2023/02/13 06:46:12;;;;;;;23.17;16.33;;;-1.90;99.90;;;-1.08;100.00;99917.94;5222895;28;20229;-81
2023/02/13 06:48:47;;;;;;;26.37;18.40;;;-1.80;99.90;;;-1.05;100.00;99909.19;5222637;28;20205;-81
2023/02/13 06:51:20;;;;;;;28.53;17.97;;;-1.80;99.90;;;-1.08;100.00;99917.94;5222820;28;20299;-81
2023/02/13 06:53:53;;;;;;;28.47;18.23;;;-1.80;99.90;;;-1.04;100.00;99908.50;5224182;28;20597;-80
2023/02/13 06:56:26;;;;;;;25.43;18.80;;;-1.70;99.90;;;-1.01;100.00;99913.91;5219904;28;20201;-80
2023/02/13 06:58:59;;;;;;;30.30;20.37;;;-1.60;99.90;;;-0.93;100.00;99915.84;5229072;28;20208;-80
2023/02/13 07:01:32;;;;;;;30.00;19.53;;;-1.50;99.90;;;-0.88;100.00;99915.59;5215606;28;20233;-80
2023/02/13 07:04:07;;;;;;;28.70;19.40;;;-1.50;99.90;;;-0.77;100.00;99912.91;5218456;28;20313;-80
2023/02/13 07:06:40;;;;;;;33.17;20.73;;;-1.30;99.90;;;-0.67;100.00;99910.91;5230976;28;20197;-81
2023/02/13 07:09:13;;;;;;;30.10;19.40;;;-1.20;99.90;;;-0.51;100.00;99921.41;5227456;28;20208;-80
2023/02/13 07:11:46;;;;;;;30.40;18.53;;;-1.20;99.90;;;-0.35;100.00;99906.75;5218371;28;20206;-80
2023/02/13 07:14:19;;;;;;;22.70;16.47;;;-1.10;99.90;;;-0.18;100.00;99913.97;5212323;28;20231;-80
2023/02/13 07:16:52;;;;;;;28.43;19.30;;;-1.00;99.90;;;-0.11;100.00;99912.50;5230870;28;20929;-80
2023/02/13 07:19:26;;;;;;;31.70;21.10;;;-0.80;99.90;;;-0.04;100.00;99902.50;5225362;28;20202;-80
2023/02/13 07:22:00;;;;;;;35.90;23.90;;;-0.70;99.90;;;0.20;100.00;99913.94;5224009;28;20294;-80
2023/02/13 07:24:34;;;;;;;32.87;21.80;;;-0.50;99.90;;;0.42;100.00;99917.66;5228771;28;20235;-80
2023/02/13 07:27:07;;;;;;;31.27;20.47;;;-0.30;99.90;;;0.64;100.00;99909.66;5229834;28;20291;-80
2023/02/13 07:29:40;;;;;;;28.83;18.80;;;0.00;99.90;;;0.89;100.00;99921.25;5215401;28;20223;-79
2023/02/13 07:32:13;;;;;;;30.10;18.90;;;0.20;99.90;;;1.07;100.00;99915.13;5223354;28;20212;-81
2023/02/13 07:34:48;;;;;;;29.10;19.03;;;0.40;99.90;;;1.23;100.00;99923.00;5215041;28;20283;-81
2023/02/13 07:37:33;;;;;;;24.03;18.07;;;0.60;99.90;;;1.33;100.00;99915.88;5228606;28;21248;-81
2023/02/13 07:40:09;;;;;;;28.20;19.30;;;0.60;99.90;;;1.26;100.00;99920.88;5216515;28;20209;-81
2023/02/13 07:42:42;;;;;;;26.27;18.70;;;0.60;99.90;;;1.45;100.00;99915.63;5221553;28;20586;-80
2023/02/13 07:45:15;;;;;;;29.33;20.10;;;0.80;99.90;;;1.61;100.00;99924.38;5227185;28;20662;-81
2023/02/13 07:47:48;;;;;;;27.17;19.33;;;0.90;99.90;;;1.74;100.00;99916.72;5225974;28;20202;-80
2023/02/13 07:50:22;;;;;;;30.83;19.60;;;1.00;99.90;;;1.90;99.25;99922.06;5228593;28;20207;-79
2023/02/13 07:52:56;;;;;;;26.40;19.20;;;1.10;99.90;;;2.03;99.87;99912.75;5222447;28;20801;-79
2023/02/13 07:55:31;;;;;;;24.90;18.63;;;1.30;99.90;;;2.20;100.00;99910.72;5221125;28;20293;-81
2023/02/13 07:58:05;;;;;;;25.87;18.97;;;1.50;99.90;;;2.42;99.50;99910.78;5224835;28;20210;-80
2023/02/13 08:00:38;;;;;;;26.60;19.90;;;1.80;99.90;;;2.58;100.00;99917.00;5231866;28;20203;-81
2023/02/13 08:03:11;;;;;;;29.00;20.43;;;1.90;99.90;;;2.79;98.98;99917.78;5225187;28;20314;-81
2023/02/13 08:05:48;;;;;;;31.50;21.50;;;2.10;99.90;;;2.96;98.39;99923.22;5220568;28;20323;-81
2023/02/13 08:08:21;;;;;;;24.27;18.73;;;2.20;99.90;;;2.93;97.02;99922.84;5221787;28;20217;-80
2023/02/13 08:13:46;;;;;;;25.30;19.27;;;2.50;99.90;;;3.24;95.54;99916.41;5217959;28;20315;-80
2023/02/13 08:16:19;;;;;;;23.27;17.97;;;2.50;99.90;;;3.33;93.90;99910.81;5225948;28;20289;-80
2023/02/13 08:18:52;;;;;;;26.17;19.67;;;2.60;99.90;;;3.34;94.19;99914.22;5221827;28;20213;-80
2023/02/13 08:21:26;;;;;;;24.40;18.53;;;2.70;99.90;;;3.60;94.82;99903.00;5225711;28;20590;-80
2023/02/13 08:23:59;;;;;;;23.00;18.33;;;2.90;99.90;;;3.79;93.44;99907.72;5216650;28;20252;-80
2023/02/13 08:26:33;;;;;;;24.87;18.43;;;3.10;99.90;;;4.07;91.55;99911.81;5222123;28;20225;-80
2023/02/13 08:29:07;;;;;;;24.20;17.93;;;3.30;99.90;;;4.21;89.02;99911.78;5214182;28;20233;-80
2023/02/13 08:31:40;;;;;;;24.53;18.90;;;3.40;99.90;;;4.21;89.84;99905.81;5223658;28;20294;-79
2023/02/13 08:34:13;;;;;;;24.23;18.23;;;3.40;99.90;;;4.31;88.68;99906.13;5229417;28;20662;-80
2023/02/13 08:36:48;;;;;;;23.27;18.67;;;3.50;99.90;;;4.45;87.43;99908.59;5216344;28;20569;-80
2023/02/13 08:39:21;;;;;;;22.23;17.10;;;3.60;99.90;;;4.33;87.97;99911.38;5221061;28;20276;-80
2023/02/13 08:41:54;;;;;;;23.40;18.60;;;3.40;99.90;;;4.30;88.63;99906.84;5221594;28;20698;-80
2023/02/13 08:44:27;;;;;;;23.10;18.00;;;3.50;99.90;;;4.34;89.27;99903.03;5222875;28;20232;-80
2023/02/13 08:47:02;;;;;;;24.20;18.50;;;3.60;99.90;;;4.47;91.15;99902.09;5222698;28;20289;-80
2023/02/13 08:49:36;;;;;;;22.70;18.97;;;3.70;99.90;;;4.67;90.86;99896.75;5222684;28;20211;-80
2023/02/13 08:52:10;;;;;;;22.47;19.23;;;4.00;99.90;;;4.88;90.36;99897.34;5224450;28;20201;-80
2023/02/13 08:54:43;;;;;;;23.80;18.57;;;4.20;99.90;;;4.88;88.97;99893.16;5227070;28;20619;-80
2023/02/13 08:57:16;;;;;;;23.30;17.67;;;4.30;99.90;;;5.08;88.90;99900.47;5217219;28;20286;-80
2023/02/13 08:59:49;;;;;;;21.07;17.57;;;4.50;99.90;;;5.33;88.30;99893.06;5216379;28;20199;-80
2023/02/13 09:02:22;;;;;;;21.60;17.43;;;4.70;99.90;;;5.50;88.33;99890.72;5227002;28;20860;-80
2023/02/13 09:04:55;;;;;;;20.43;17.83;;;4.90;99.90;;;5.77;86.76;99885.19;5220580;28;20229;-80
2023/02/13 09:07:30;;;;;;;19.97;17.23;;;5.20;99.90;;;5.91;85.03;99895.97;5219807;28;20906;-80
2023/02/13 09:10:03;;;;;;;21.87;18.40;;;5.30;99.90;;;6.06;83.90;99897.63;5216773;28;20201;-80
2023/02/13 09:12:37;;;;;;;20.20;17.63;;;5.40;99.90;;;6.17;82.83;99899.69;5221205;28;20204;-81
2023/02/13 09:15:10;;;;;;;22.40;18.27;;;5.50;99.90;;;6.29;82.50;99895.00;5221543;28;20225;-79
2023/02/13 09:17:43;;;;;;;20.60;17.73;;;5.60;99.90;;;6.25;82.76;99892.91;5220810;28;20251;-81
2023/02/13 09:20:16;;;;;;;24.20;18.63;;;5.60;99.90;;;6.57;81.79;99890.31;5221264;28;20233;-80
2023/02/13 09:22:51;;;;;;;21.63;18.83;;;5.90;99.90;;;6.65;80.99;99895.47;5220201;28;20292;-79
2023/02/13 09:25:25;;;;;;;26.63;20.30;;;6.00;99.90;;;6.73;80.14;99894.63;5221840;28;20220;-80
2023/02/13 09:27:59;;;;;;;21.17;17.70;;;6.10;99.90;;;6.83;80.86;99893.06;5220935;28;20254;-80
2023/02/13 09:30:32;;;;;;;19.80;15.83;;;6.20;99.90;;;6.94;80.94;99895.06;5217345;28;20194;-80
2023/02/13 09:33:11;;;;;;;18.80;16.77;;;6.30;99.90;;;7.01;78.92;99887.34;5220939;28;20208;-81
2023/02/13 09:35:44;;;;;;;16.10;14.30;;;6.40;99.90;;;6.93;78.46;99890.75;5214338;28;20681;-81
2023/02/13 09:38:18;;;;;;;14.37;12.87;;;6.40;99.90;;;6.96;78.23;99894.50;5217432;28;20728;-80
2023/02/13 09:40:58;;;;;;;13.63;12.23;;;6.40;99.90;;;6.90;78.07;99891.31;5216995;28;20650;-81
2023/02/13 09:43:35;;;;;;;13.43;11.57;;;6.30;99.90;;;7.07;76.24;99893.06;5212414;28;20283;-81
2023/02/13 09:46:16;;;;;;;12.13;10.93;;;6.50;99.90;;;7.07;75.33;99898.16;5218261;28;20228;-81
2023/02/13 09:48:53;;;;;;;13.43;11.77;;;6.50;99.90;;;7.07;77.63;99897.22;5220587;28;20217;-79
2023/02/13 09:51:28;;;;;;;12.47;11.23;;;6.50;99.90;;;7.20;77.16;99890.13;5220139;28;20197;-80
2023/02/13 09:54:05;;;;;;;12.67;11.37;;;6.50;99.90;;;7.39;76.39;99890.38;5222984;28;20220;-80
2023/02/13 09:56:53;;;;;;;11.63;10.13;;;6.70;99.90;;;7.61;74.84;99893.44;5221029;28;20197;-80
2023/02/13 09:59:40;;;;;;;12.00;10.80;;;7.00;99.90;;;7.65;74.54;99890.50;5222584;28;20247;-80
2023/02/13 10:02:47;;;;;;;11.30;10.13;;;7.20;99.90;;;7.92;73.24;99894.00;5218441;28;20237;-80
2023/02/13 10:05:47;;;;;;;11.00;9.90;;;7.50;99.90;;;7.97;73.02;99888.63;5221883;28;20707;-81
2023/02/13 10:08:44;;;;;;;10.87;9.80;;;7.50;99.90;;;8.00;72.75;99888.94;5215315;28;20236;-79
2023/02/13 10:11:45;;;;;;;11.23;10.13;;;7.50;99.90;;;8.16;72.64;99887.94;5222905;28;20280;-78
2023/02/13 10:14:24;;;;;;;10.50;9.60;;;7.50;99.90;;;8.28;71.11;99889.13;5218696;28;20224;-80
2023/02/13 10:17:05;;;;;;;10.67;9.67;;;7.70;99.90;;;8.24;71.55;99889.56;5226804;28;20622;-80
2023/02/13 10:19:44;;;;;;;10.60;9.60;;;7.70;99.90;;;8.34;70.81;99893.16;5222646;28;20208;-81
2023/02/13 10:22:20;;;;;;;11.13;10.10;;;7.80;99.90;;;8.39;70.43;99888.56;5225156;28;20920;-80
2023/02/13 10:24:57;;;;;;;10.73;9.73;;;8.00;99.90;;;8.30;71.53;99887.66;5226320;28;20732;-79
2023/02/13 10:27:37;;;;;;;11.07;9.93;;;7.90;99.90;;;8.35;71.21;99887.34;5224629;28;20690;-79
2023/02/13 10:30:21;;;;;;;11.47;10.47;;;7.90;99.90;;;8.37;70.94;99881.50;5225240;28;20197;-80
2023/02/13 10:33:19;;;;;;;10.60;9.50;;;7.90;99.90;;;8.43;69.45;99883.00;5225225;28;20672;-80
2023/02/13 10:36:00;;;;;;;10.73;9.73;;;8.00;99.90;;;8.39;70.69;99883.47;5222493;28;20581;-80
2023/02/13 10:38:38;;;;;;;11.00;10.00;;;7.90;99.90;;;8.36;70.87;99875.50;5225250;28;20255;-81
2023/02/13 10:41:32;;;;;;;11.57;10.47;;;7.90;99.90;;;8.56;70.91;99878.38;5224724;28;20207;-80
2023/02/13 10:44:23;;;;;;;11.00;10.00;;;8.00;99.90;;;8.59;70.42;99874.34;5225107;28;20276;-81
2023/02/13 10:47:10;;;;;;;11.27;10.20;;;8.10;99.90;;;8.61;70.52;99876.25;5223482;28;20221;-79
2023/02/13 10:50:01;;;;;;;11.07;9.97;;;8.10;99.90;;;8.69;68.88;99866.81;5226785;28;20331;-80
2023/02/13 10:52:46;;;;;;;11.63;10.43;;;8.20;99.90;;;8.66;69.24;99866.53;5224815;28;20201;-81
2023/02/13 10:56:00;;;;;;;11.20;10.10;;;8.10;99.90;;;8.64;68.40;99860.38;5225727;28;20915;-80
2023/02/13 10:58:50;;;;;;;11.03;9.93;;;8.30;99.90;;;8.37;70.14;99864.56;5219011;28;20209;-81
2023/02/13 11:01:33;;;;;;;11.63;10.43;;;7.90;99.90;;;8.48;68.96;99864.00;5224300;28;20205;-80
2023/02/13 11:04:10;;;;;;;11.47;10.33;;;8.10;99.90;;;8.46;69.51;99849.28;5218898;28;20221;-81
2023/02/13 11:06:52;;;;;;;11.20;10.10;;;8.10;99.90;;;8.46;69.81;99855.28;5221506;28;20217;-78
2023/02/13 11:09:26;;;;;;;10.93;9.93;;;8.00;99.90;;;8.41;70.61;99843.75;5222798;28;20205;-80
2023/02/13 11:12:25;;;;;;;10.70;9.67;;;7.90;99.90;;;8.47;70.26;99849.47;5220389;28;20808;-80
2023/02/13 11:15:01;;;;;;;10.77;9.77;;;7.90;99.90;;;8.57;69.05;99846.13;5225347;28;20283;-81
2023/02/13 11:17:40;;;;;;;11.53;10.43;;;8.20;99.90;;;8.57;69.21;99835.94;5225110;28;20259;-79
2023/02/13 11:20:29;;;;;;;11.60;10.50;;;8.30;99.90;;;8.53;69.77;99844.06;5218851;28;20248;-80
2023/02/13 11:23:34;;;;;;;11.10;10.07;;;8.10;99.90;;;8.51;69.58;99845.56;5224783;28;20651;-81
2023/02/13 11:26:10;;;;;;;10.70;9.70;;;8.20;99.90;;;8.53;70.16;99837.31;5218551;28;20247;-80
2023/02/13 11:28:56;;;;;;;11.27;10.07;;;8.20;99.90;;;8.55;69.82;99835.78;5226751;28;20220;-80
2023/02/13 11:31:31;;;;;;;11.10;10.00;;;8.10;99.90;;;8.57;70.14;99831.75;5226236;28;20235;-80
2023/02/13 11:34:26;;;;;;;10.60;9.50;;;8.00;99.90;;;8.53;69.68;99838.97;5222709;28;20705;-80
2023/02/13 11:37:18;;;;;;;10.90;9.90;;;8.10;99.90;;;8.48;69.57;99835.97;5226383;28;20197;-80